createdAt,value
2022-11-02T00:00:50.367Z,10.58
2022-11-02T00:01:50.435Z,10.55
2022-11-02T00:02:50.322Z,10.54
2022-11-02T00:03:50.305Z,10.55
2022-11-02T00:04:50.314Z,10.54
2022-11-02T00:05:51.238Z,10.54
2022-11-02T00:06:50.277Z,10.52
2022-11-02T00:07:50.261Z,10.54
2022-11-02T00:08:50.246Z,10.51
2022-11-02T00:09:50.252Z,10.51
2022-11-02T00:10:50.229Z,10.49
2022-11-02T00:11:50.215Z,10.46
2022-11-02T00:12:50.188Z,10.43
2022-11-02T00:13:50.221Z,10.42
2022-11-02T00:14:50.170Z,10.39
2022-11-02T00:15:50.168Z,10.38
2022-11-02T00:16:50.158Z,10.35
2022-11-02T00:17:50.203Z,10.35
2022-11-02T00:18:50.160Z,10.34
2022-11-02T00:19:50.132Z,10.32
2022-11-02T00:20:50.100Z,10.28
2022-11-02T00:21:50.114Z,10.26
2022-11-02T00:22:50.081Z,10.28
2022-11-02T00:23:50.102Z,10.26
2022-11-02T00:24:50.081Z,10.24
2022-11-02T00:25:50.072Z,10.24
2022-11-02T00:26:50.051Z,10.22
2022-11-02T00:27:50.057Z,10.18
2022-11-02T00:28:50.032Z,10.17
2022-11-02T00:29:50.029Z,10.17
2022-11-02T00:30:50.178Z,10.16
2022-11-02T00:31:50.026Z,10.16
2022-11-02T00:32:49.991Z,10.16
2022-11-02T00:33:49.972Z,10.16
2022-11-02T00:34:49.972Z,10.14
2022-11-02T00:35:49.952Z,10.16
2022-11-02T00:36:55.223Z,10.14
2022-11-02T00:37:50.958Z,10.13
2022-11-02T00:38:49.911Z,10.11
2022-11-02T00:39:49.933Z,10.10
2022-11-02T00:40:49.893Z,10.09
2022-11-02T00:41:50.060Z,10.07
2022-11-02T00:42:49.863Z,10.09
2022-11-02T00:43:49.862Z,10.10
2022-11-02T00:44:49.853Z,10.09
2022-11-02T00:45:49.845Z,10.07
2022-11-02T00:46:49.866Z,10.10
2022-11-02T00:47:49.836Z,10.10
2022-11-02T00:48:49.816Z,10.10
2022-11-02T00:49:49.811Z,10.13
2022-11-02T00:50:49.784Z,10.13
2022-11-02T00:51:49.794Z,10.13
2022-11-02T00:52:49.785Z,10.14
2022-11-02T00:53:49.753Z,10.13
2022-11-02T00:54:49.765Z,10.14
2022-11-02T00:55:49.725Z,10.14
2022-11-02T00:56:49.816Z,10.13
2022-11-02T00:57:49.735Z,10.11
2022-11-02T00:58:49.716Z,10.10
2022-11-02T00:59:49.708Z,10.11
2022-11-02T01:00:49.686Z,10.10
2022-11-02T01:01:49.819Z,10.07
2022-11-02T01:02:49.779Z,10.07
2022-11-02T01:03:49.647Z,10.09
2022-11-02T01:04:49.635Z,10.09
2022-11-02T01:05:49.636Z,10.07
2022-11-02T01:06:49.616Z,10.07
2022-11-02T01:07:49.616Z,10.07
2022-11-02T01:08:49.608Z,10.07
2022-11-02T01:09:49.577Z,10.06
2022-11-02T01:10:49.589Z,10.06
2022-11-02T01:11:49.568Z,10.06
2022-11-02T01:12:49.592Z,10.04
2022-11-02T01:13:49.536Z,10.02
2022-11-02T01:14:49.538Z,10.06
2022-11-02T01:15:49.527Z,10.07
2022-11-02T01:16:49.533Z,10.06
2022-11-02T01:17:49.488Z,10.06
2022-11-02T01:18:49.518Z,10.07
2022-11-02T01:19:49.487Z,10.06
2022-11-02T01:20:49.468Z,10.06
2022-11-02T01:21:49.456Z,10.06
2022-11-02T01:22:49.449Z,10.07
2022-11-02T01:23:49.454Z,10.06
2022-11-02T01:24:49.430Z,10.04
2022-11-02T01:25:49.430Z,10.06
2022-11-02T01:26:49.400Z,10.06
2022-11-02T01:27:49.393Z,10.04
2022-11-02T01:28:49.390Z,10.06
2022-11-02T01:29:49.360Z,10.09
2022-11-02T01:30:49.363Z,10.07
2022-11-02T01:31:49.341Z,10.07
2022-11-02T01:32:49.340Z,10.10
2022-11-02T01:33:49.334Z,10.16
2022-11-02T01:34:49.355Z,10.24
2022-11-02T01:35:49.299Z,10.31
2022-11-02T01:36:49.307Z,10.35
2022-11-02T01:37:49.291Z,10.42
2022-11-02T01:38:49.292Z,10.44
2022-11-02T01:39:49.282Z,10.47
2022-11-02T01:40:49.253Z,10.54
2022-11-02T01:41:49.231Z,10.55
2022-11-02T01:42:49.239Z,10.55
2022-11-02T01:43:49.245Z,10.62
2022-11-02T01:44:49.242Z,10.62
2022-11-02T01:45:49.201Z,10.63
2022-11-02T01:46:49.233Z,10.66
2022-11-02T01:47:49.184Z,10.73
2022-11-02T01:48:49.173Z,10.80
2022-11-02T01:49:49.158Z,10.81
2022-11-02T01:50:49.155Z,10.81
2022-11-02T01:51:49.145Z,10.80
2022-11-02T01:52:49.123Z,10.80
2022-11-02T01:53:49.114Z,10.83
2022-11-02T01:54:49.123Z,10.84
2022-11-02T01:55:49.084Z,10.86
2022-11-02T01:56:49.082Z,10.86
2022-11-02T01:57:49.066Z,10.88
2022-11-02T01:58:49.055Z,10.90
2022-11-02T01:59:49.034Z,10.91
2022-11-02T02:00:49.078Z,10.93
2022-11-02T02:01:49.137Z,10.94
2022-11-02T02:02:49.060Z,10.93
2022-11-02T02:03:49.007Z,10.95
2022-11-02T02:04:48.985Z,10.98
2022-11-02T02:05:48.977Z,11.02
2022-11-02T02:06:48.965Z,11.03
2022-11-02T02:07:48.976Z,11.08
2022-11-02T02:08:48.957Z,11.09
2022-11-02T02:09:51.357Z,11.09
2022-11-02T02:10:48.923Z,11.11
2022-11-02T02:11:48.916Z,11.13
2022-11-02T02:12:48.895Z,11.19
2022-11-02T02:13:48.896Z,11.23
2022-11-02T02:14:48.876Z,11.23
2022-11-02T02:15:48.866Z,11.26
2022-11-02T02:17:48.846Z,11.27
2022-11-02T02:18:48.834Z,11.24
2022-11-02T02:19:48.858Z,11.26
2022-11-02T02:20:48.809Z,11.26
2022-11-02T02:21:48.808Z,11.24
2022-11-02T02:22:48.788Z,11.23
2022-11-02T02:23:48.785Z,11.21
2022-11-02T02:24:48.772Z,11.20
2022-11-02T02:25:48.779Z,11.19
2022-11-02T02:26:48.745Z,11.17
2022-11-02T02:27:48.738Z,11.16
2022-11-02T02:28:48.732Z,11.13
2022-11-02T02:29:48.729Z,11.12
2022-11-02T02:30:48.706Z,11.11
2022-11-02T02:31:48.697Z,11.08
2022-11-02T02:32:48.687Z,11.08
2022-11-02T02:33:48.678Z,11.06
2022-11-02T02:34:48.659Z,11.06
2022-11-02T02:35:48.649Z,11.05
2022-11-02T02:36:48.662Z,11.05
2022-11-02T02:37:48.656Z,11.03
2022-11-02T02:38:48.611Z,11.03
2022-11-02T02:39:48.632Z,11.02
2022-11-02T02:40:48.599Z,11.01
2022-11-02T02:41:48.610Z,11.01
2022-11-02T02:42:48.570Z,10.99
2022-11-02T02:43:48.571Z,10.99
2022-11-02T02:44:48.561Z,10.95
2022-11-02T02:45:48.551Z,10.95
2022-11-02T02:46:51.050Z,10.98
2022-11-02T02:47:49.531Z,10.99
2022-11-02T02:48:48.511Z,10.99
2022-11-02T02:49:48.505Z,10.99
2022-11-02T02:50:48.502Z,10.99
2022-11-02T02:51:48.480Z,11.01
2022-11-02T02:52:48.470Z,11.01
2022-11-02T02:53:48.471Z,11.02
2022-11-02T02:54:48.449Z,10.99
2022-11-02T02:55:48.453Z,11.02
2022-11-02T02:56:48.430Z,10.99
2022-11-02T02:57:48.412Z,10.99
2022-11-02T02:58:48.405Z,10.98
2022-11-02T02:59:48.410Z,10.98
2022-11-02T03:00:48.374Z,10.94
2022-11-02T03:01:48.443Z,10.94
2022-11-02T03:02:48.353Z,10.93
2022-11-02T03:03:48.360Z,10.93
2022-11-02T03:04:48.351Z,10.91
2022-11-02T03:05:48.333Z,10.90
2022-11-02T03:06:48.324Z,10.88
2022-11-02T03:07:48.328Z,10.88
2022-11-02T03:08:48.295Z,10.87
2022-11-02T03:09:48.285Z,10.87
2022-11-02T03:10:48.267Z,10.86
2022-11-02T03:11:48.284Z,10.86
2022-11-02T03:12:48.254Z,10.86
2022-11-02T03:13:48.245Z,10.87
2022-11-02T03:14:48.226Z,10.87
2022-11-02T03:15:48.223Z,10.87
2022-11-02T03:16:48.325Z,10.87
2022-11-02T03:17:48.196Z,10.88
2022-11-02T03:18:48.193Z,10.91
2022-11-02T03:19:48.176Z,10.93
2022-11-02T03:20:48.169Z,10.93
2022-11-02T03:21:48.176Z,10.93
2022-11-02T03:22:48.145Z,10.94
2022-11-02T03:23:48.135Z,10.95
2022-11-02T03:24:48.118Z,10.98
2022-11-02T03:25:48.115Z,10.95
2022-11-02T03:26:48.116Z,10.99
2022-11-02T03:27:48.096Z,10.99
2022-11-02T03:28:48.087Z,10.99
2022-11-02T03:29:48.067Z,11.01
2022-11-02T03:30:48.060Z,10.99
2022-11-02T03:31:48.059Z,10.99
2022-11-02T03:32:48.036Z,10.99
2022-11-02T03:33:48.028Z,11.01
2022-11-02T03:34:48.018Z,11.02
2022-11-02T03:35:48.007Z,11.01
2022-11-02T03:36:48.010Z,11.02
2022-11-02T03:37:48.009Z,10.99
2022-11-02T03:38:47.973Z,10.99
2022-11-02T03:39:47.990Z,10.99
2022-11-02T03:40:47.951Z,10.99
2022-11-02T03:41:47.947Z,10.98
2022-11-02T03:42:47.929Z,10.98
2022-11-02T03:43:47.931Z,10.94
2022-11-02T03:44:47.901Z,10.94
2022-11-02T03:45:47.900Z,10.91
2022-11-02T03:46:47.881Z,10.93
2022-11-02T03:47:47.883Z,10.91
2022-11-02T03:48:47.869Z,10.88
2022-11-02T03:49:47.850Z,10.88
2022-11-02T03:50:47.859Z,10.87
2022-11-02T03:51:47.830Z,10.84
2022-11-02T03:52:47.819Z,10.83
2022-11-02T03:53:47.851Z,10.81
2022-11-02T03:54:47.821Z,10.81
2022-11-02T03:55:47.792Z,10.80
2022-11-02T03:56:47.782Z,10.78
2022-11-02T03:57:47.769Z,10.78
2022-11-02T03:58:47.752Z,10.78
2022-11-02T03:59:47.753Z,10.80
2022-11-02T04:00:47.733Z,10.81
2022-11-02T04:01:47.840Z,10.81
2022-11-02T04:02:47.781Z,10.84
2022-11-02T04:03:47.724Z,10.87
2022-11-02T04:04:47.694Z,10.90
2022-11-02T04:05:47.681Z,10.95
2022-11-02T04:06:47.666Z,11.01
2022-11-02T04:07:49.991Z,11.06
2022-11-02T04:08:47.655Z,11.09
2022-11-02T04:09:47.645Z,11.11
2022-11-02T04:10:47.624Z,11.16
2022-11-02T04:11:47.633Z,11.16
2022-11-02T04:12:47.603Z,11.19
2022-11-02T04:13:47.594Z,11.20
2022-11-02T04:14:47.603Z,11.23
2022-11-02T04:15:47.575Z,11.24
2022-11-02T04:16:47.565Z,11.27
2022-11-02T04:17:47.553Z,11.30
2022-11-02T04:18:47.536Z,11.33
2022-11-02T04:19:49.849Z,11.35
2022-11-02T04:20:47.515Z,11.39
2022-11-02T04:21:47.507Z,11.45
2022-11-02T04:22:47.506Z,11.51
2022-11-02T04:23:47.486Z,11.56
2022-11-02T04:24:47.468Z,11.59
2022-11-02T04:25:47.471Z,11.60
2022-11-02T04:26:47.456Z,11.63
2022-11-02T04:27:47.466Z,11.62
2022-11-02T04:28:47.426Z,11.62
2022-11-02T04:29:47.425Z,11.62
2022-11-02T04:30:47.428Z,11.59
2022-11-02T04:31:47.406Z,11.59
2022-11-02T04:32:47.387Z,11.57
2022-11-02T04:33:47.388Z,11.59
2022-11-02T04:34:47.365Z,11.63
2022-11-02T04:35:47.377Z,11.64
2022-11-02T04:36:47.348Z,11.64
2022-11-02T04:37:47.338Z,11.64
2022-11-02T04:38:47.318Z,11.63
2022-11-02T04:39:47.326Z,11.62
2022-11-02T04:40:47.323Z,11.64
2022-11-02T04:41:47.298Z,11.62
2022-11-02T04:42:47.301Z,11.62
2022-11-02T04:43:47.277Z,11.60
2022-11-02T04:44:47.269Z,11.59
2022-11-02T04:45:47.251Z,11.57
2022-11-02T04:46:47.246Z,11.56
2022-11-02T04:47:47.228Z,11.54
2022-11-02T04:48:47.221Z,11.53
2022-11-02T04:49:47.240Z,11.57
2022-11-02T04:50:47.198Z,11.57
2022-11-02T04:51:49.749Z,11.59
2022-11-02T04:52:47.171Z,11.59
2022-11-02T04:53:47.169Z,11.60
2022-11-02T04:54:47.162Z,11.60
2022-11-02T04:55:47.161Z,11.62
2022-11-02T04:56:47.133Z,11.62
2022-11-02T04:57:47.124Z,11.59
2022-11-02T04:58:47.121Z,11.57
2022-11-02T04:59:47.100Z,11.57
2022-11-02T05:00:47.094Z,11.57
2022-11-02T05:01:47.161Z,11.56
2022-11-02T05:02:47.142Z,11.53
2022-11-02T05:03:47.074Z,11.51
2022-11-02T05:04:47.065Z,11.48
2022-11-02T05:05:47.037Z,11.46
2022-11-02T05:06:47.030Z,11.41
2022-11-02T05:07:47.012Z,11.38
2022-11-02T05:08:47.013Z,11.31
2022-11-02T05:09:47.007Z,11.27
2022-11-02T05:10:46.980Z,11.23
2022-11-02T05:11:46.974Z,11.19
2022-11-02T05:12:46.982Z,11.13
2022-11-02T05:13:47.228Z,11.11
2022-11-02T05:14:46.939Z,11.05
2022-11-02T05:15:46.933Z,11.02
2022-11-02T05:16:46.921Z,10.98
2022-11-02T05:17:46.914Z,10.94
2022-11-02T05:18:46.895Z,10.90
2022-11-02T05:19:46.876Z,10.87
2022-11-02T05:20:46.913Z,10.81
2022-11-02T05:21:46.854Z,10.80
2022-11-02T05:22:46.858Z,10.75
2022-11-02T05:23:46.842Z,10.73
2022-11-02T05:24:46.858Z,10.69
2022-11-02T05:25:46.812Z,10.66
2022-11-02T05:26:51.300Z,10.66
2022-11-02T05:27:47.794Z,10.62
2022-11-02T05:28:46.805Z,10.60
2022-11-02T05:29:46.769Z,10.58
2022-11-02T05:30:46.766Z,10.55
2022-11-02T05:31:46.755Z,10.54
2022-11-02T05:32:46.773Z,10.52
2022-11-02T05:33:46.736Z,10.51
2022-11-02T05:34:46.727Z,10.51
2022-11-02T05:35:46.706Z,10.47
2022-11-02T05:36:46.718Z,10.47
2022-11-02T05:37:46.701Z,10.43
2022-11-02T05:38:46.676Z,10.44
2022-11-02T05:39:49.502Z,10.42
2022-11-02T05:40:46.657Z,10.42
2022-11-02T05:41:46.647Z,10.42
2022-11-02T05:42:46.648Z,10.39
2022-11-02T05:43:46.626Z,10.36
2022-11-02T05:44:46.621Z,10.35
2022-11-02T05:45:46.598Z,10.34
2022-11-02T05:46:46.596Z,10.34
2022-11-02T05:47:46.628Z,10.31
2022-11-02T05:48:46.570Z,10.31
2022-11-02T05:49:46.563Z,10.29
2022-11-02T05:50:46.550Z,10.29
2022-11-02T05:51:46.566Z,10.26
2022-11-02T05:52:46.541Z,10.26
2022-11-02T05:53:46.511Z,10.25
2022-11-02T05:54:46.528Z,10.25
2022-11-02T05:55:46.499Z,10.24
2022-11-02T05:56:46.508Z,10.24
2022-11-02T05:57:46.490Z,10.22
2022-11-02T05:58:46.509Z,10.20
2022-11-02T05:59:49.218Z,10.18
2022-11-02T06:00:46.461Z,10.18
2022-11-02T06:01:46.487Z,10.16
2022-11-02T06:02:46.431Z,10.20
2022-11-02T06:03:52.073Z,10.24
2022-11-02T06:04:47.474Z,10.29
2022-11-02T06:05:46.459Z,10.31
2022-11-02T06:06:46.397Z,10.34
2022-11-02T06:07:46.379Z,10.34
2022-11-02T06:08:46.364Z,10.38
2022-11-02T06:09:46.370Z,10.46
2022-11-02T06:10:46.331Z,10.54
2022-11-02T06:11:46.350Z,10.62
2022-11-02T06:12:46.327Z,10.66
2022-11-02T06:13:46.291Z,10.70
2022-11-02T06:14:46.293Z,10.76
2022-11-02T06:15:46.279Z,10.83
2022-11-02T06:16:46.272Z,10.87
2022-11-02T06:17:46.281Z,10.88
2022-11-02T06:18:46.245Z,10.90
2022-11-02T06:19:46.245Z,10.93
2022-11-02T06:20:46.225Z,10.95
2022-11-02T06:21:48.432Z,10.98
2022-11-02T06:22:46.223Z,10.99
2022-11-02T06:23:46.183Z,10.99
2022-11-02T06:24:46.186Z,10.99
2022-11-02T06:25:46.174Z,10.95
2022-11-02T06:26:46.165Z,10.98
2022-11-02T06:27:46.194Z,10.95
2022-11-02T06:28:46.134Z,10.94
2022-11-02T06:29:46.161Z,10.98
2022-11-02T06:30:46.124Z,10.94
2022-11-02T06:31:46.111Z,10.93
2022-11-02T06:32:46.095Z,10.94
2022-11-02T06:33:46.106Z,10.98
2022-11-02T06:34:46.084Z,10.98
2022-11-02T06:35:46.065Z,10.98
2022-11-02T06:36:46.066Z,11.01
2022-11-02T06:37:46.065Z,11.03
2022-11-02T06:38:46.047Z,11.06
2022-11-02T06:39:46.016Z,11.11
2022-11-02T06:40:46.016Z,11.16
2022-11-02T06:41:45.999Z,11.19
2022-11-02T06:43:03.282Z,11.23
2022-11-02T06:43:46.987Z,11.26
2022-11-02T06:44:45.966Z,11.31
2022-11-02T06:45:45.948Z,11.36
2022-11-02T06:46:45.946Z,11.42
2022-11-02T06:47:45.926Z,11.46
2022-11-02T06:48:45.937Z,11.49
2022-11-02T06:49:45.924Z,11.56
2022-11-02T06:50:45.906Z,11.60
2022-11-02T06:51:45.904Z,11.62
2022-11-02T06:52:45.877Z,11.66
2022-11-02T06:53:45.867Z,11.70
2022-11-02T06:54:45.869Z,11.74
2022-11-02T06:55:45.848Z,11.77
2022-11-02T06:56:45.857Z,11.79
2022-11-02T06:57:45.842Z,11.82
2022-11-02T06:58:45.849Z,11.85
2022-11-02T06:59:49.948Z,11.88
2022-11-02T07:00:46.935Z,11.94
2022-11-02T07:01:45.971Z,11.97
2022-11-02T07:02:45.769Z,12.03
2022-11-02T07:03:46.723Z,12.07
2022-11-02T07:04:45.751Z,12.11
2022-11-02T07:05:45.738Z,12.13
2022-11-02T07:06:45.757Z,12.16
2022-11-02T07:07:45.721Z,12.19
2022-11-02T07:08:45.722Z,12.22
2022-11-02T07:09:45.711Z,12.22
2022-11-02T07:10:45.694Z,12.23
2022-11-02T07:11:45.703Z,12.25
2022-11-02T07:12:45.670Z,12.26
2022-11-02T07:13:46.506Z,12.26
2022-11-02T07:14:45.681Z,12.29
2022-11-02T07:15:45.663Z,12.30
2022-11-02T07:16:45.635Z,12.31
2022-11-02T07:17:45.622Z,12.34
2022-11-02T07:18:45.601Z,12.36
2022-11-02T07:19:45.601Z,12.37
2022-11-02T07:20:45.582Z,12.38
2022-11-02T07:21:47.699Z,12.41
2022-11-02T07:22:45.573Z,12.43
2022-11-02T07:23:45.572Z,12.44
2022-11-02T07:24:45.532Z,12.49
2022-11-02T07:25:45.532Z,12.49
2022-11-02T07:26:45.533Z,12.54
2022-11-02T07:27:45.511Z,12.54
2022-11-02T07:28:45.503Z,12.56
2022-11-02T07:29:45.476Z,12.59
2022-11-02T07:30:45.465Z,12.62
2022-11-02T07:31:45.484Z,12.66
2022-11-02T07:32:45.454Z,12.67
2022-11-02T07:33:45.446Z,12.67
2022-11-02T07:34:45.432Z,12.70
2022-11-02T07:35:45.427Z,12.70
2022-11-02T07:36:45.406Z,12.71
2022-11-02T07:37:45.384Z,12.71
2022-11-02T07:38:45.402Z,12.73
2022-11-02T07:39:45.365Z,12.74
2022-11-02T07:40:45.366Z,12.77
2022-11-02T07:41:50.819Z,12.79
2022-11-02T07:42:46.345Z,12.81
2022-11-02T07:43:45.347Z,12.84
2022-11-02T07:44:45.338Z,12.87
2022-11-02T07:45:45.343Z,12.88
2022-11-02T07:46:45.305Z,12.91
2022-11-02T07:47:45.288Z,12.91
2022-11-02T07:48:45.287Z,12.95
2022-11-02T07:49:45.267Z,12.98
2022-11-02T07:50:45.281Z,12.99
2022-11-02T07:51:45.239Z,12.99
2022-11-02T07:52:45.239Z,13.04
2022-11-02T07:53:45.218Z,13.09
2022-11-02T07:54:45.222Z,13.13
2022-11-02T07:55:45.232Z,13.17
2022-11-02T07:56:45.191Z,13.25
2022-11-02T07:57:45.190Z,13.28
2022-11-02T07:58:45.172Z,13.32
2022-11-02T07:59:45.159Z,13.38
2022-11-02T08:00:45.172Z,13.44
2022-11-02T08:01:46.276Z,13.47
2022-11-02T08:02:45.210Z,13.51
2022-11-02T08:03:45.127Z,13.54
2022-11-02T08:04:45.368Z,13.59
2022-11-02T08:05:45.119Z,13.62
2022-11-02T08:06:45.080Z,13.65
2022-11-02T08:07:45.062Z,13.69
2022-11-02T08:08:45.084Z,13.72
2022-11-02T08:09:45.041Z,13.75
2022-11-02T08:10:45.041Z,13.79
2022-11-02T08:11:45.031Z,13.81
2022-11-02T08:12:45.022Z,13.84
2022-11-02T08:13:45.300Z,13.86
2022-11-02T08:14:44.999Z,13.90
2022-11-02T08:15:45.961Z,13.90
2022-11-02T08:16:45.122Z,13.91
2022-11-02T08:17:44.983Z,13.93
2022-11-02T08:18:45.082Z,13.96
2022-11-02T08:19:44.973Z,13.99
2022-11-02T08:20:44.964Z,14.02
2022-11-02T08:21:44.914Z,14.05
2022-11-02T08:22:44.913Z,14.08
2022-11-02T08:23:44.910Z,14.09
2022-11-02T08:24:44.893Z,14.16
2022-11-02T08:25:44.893Z,14.17
2022-11-02T08:26:45.945Z,14.21
2022-11-02T08:27:44.853Z,14.26
2022-11-02T08:28:44.854Z,14.26
2022-11-02T08:29:44.847Z,14.29
2022-11-02T08:30:44.824Z,14.29
2022-11-02T08:31:44.834Z,14.31
2022-11-02T08:32:44.806Z,14.35
2022-11-02T08:33:44.793Z,14.36
2022-11-02T08:34:44.776Z,14.38
2022-11-02T08:35:44.815Z,14.39
2022-11-02T08:36:44.756Z,14.44
2022-11-02T08:37:44.744Z,14.46
2022-11-02T08:38:44.753Z,14.48
2022-11-02T08:39:44.735Z,14.48
2022-11-02T08:40:44.719Z,14.49
2022-11-02T08:41:44.710Z,14.53
2022-11-02T08:42:44.706Z,14.57
2022-11-02T08:43:44.689Z,14.59
2022-11-02T08:44:44.698Z,14.61
2022-11-02T08:46:45.693Z,14.64
2022-11-02T08:47:44.682Z,14.67
2022-11-02T08:48:44.654Z,14.69
2022-11-02T08:49:44.615Z,14.72
2022-11-02T08:50:45.328Z,14.78
2022-11-02T08:51:44.621Z,14.80
2022-11-02T08:52:45.666Z,14.82
2022-11-02T08:53:50.190Z,14.83
2022-11-02T08:54:46.544Z,14.86
2022-11-02T08:55:44.568Z,14.87
2022-11-02T08:56:45.551Z,14.93
2022-11-02T08:57:44.530Z,14.94
2022-11-02T08:58:45.242Z,14.97
2022-11-02T08:59:44.530Z,14.97
2022-11-02T09:00:44.642Z,14.95
2022-11-02T09:01:44.659Z,14.97
2022-11-02T09:02:44.673Z,14.95
2022-11-02T09:03:44.460Z,14.95
2022-11-02T09:04:44.451Z,14.95
2022-11-02T09:05:44.452Z,14.97
2022-11-02T09:06:44.432Z,15.00
2022-11-02T09:07:44.413Z,15.01
2022-11-02T09:08:44.432Z,15.01
2022-11-02T09:09:44.392Z,15.03
2022-11-02T09:10:44.404Z,15.01
2022-11-02T09:11:44.374Z,15.03
2022-11-02T09:12:44.375Z,15.04
2022-11-02T09:13:44.439Z,15.05
2022-11-02T09:14:44.353Z,15.11
2022-11-02T09:15:44.326Z,15.11
2022-11-02T09:16:44.324Z,15.12
2022-11-02T09:17:44.305Z,15.16
2022-11-02T09:18:44.315Z,15.19
2022-11-02T09:19:44.297Z,15.22
2022-11-02T09:20:44.275Z,15.25
2022-11-02T09:21:44.265Z,15.28
2022-11-02T09:22:44.255Z,15.33
2022-11-02T09:23:44.307Z,15.33
2022-11-02T09:24:44.225Z,15.35
2022-11-02T09:25:44.237Z,15.35
2022-11-02T09:26:44.209Z,15.38
2022-11-02T09:27:44.254Z,15.41
2022-11-02T09:28:44.214Z,15.43
2022-11-02T09:29:44.179Z,15.48
2022-11-02T09:30:44.167Z,15.51
2022-11-02T09:31:44.179Z,15.53
2022-11-02T09:32:44.157Z,15.52
2022-11-02T09:33:44.139Z,15.53
2022-11-02T09:34:45.057Z,15.56
2022-11-02T09:35:44.121Z,15.64
2022-11-02T09:36:44.128Z,15.67
2022-11-02T09:37:48.362Z,15.73
2022-11-02T09:38:45.093Z,15.78
2022-11-02T09:39:44.088Z,15.80
2022-11-02T09:40:44.069Z,15.78
2022-11-02T09:41:44.061Z,15.77
2022-11-02T09:42:44.030Z,15.78
2022-11-02T09:43:44.030Z,15.84
2022-11-02T09:44:44.038Z,15.89
2022-11-02T09:45:44.012Z,15.92
2022-11-02T09:46:43.989Z,15.95
2022-11-02T09:48:44.968Z,16.03
2022-11-02T09:49:43.961Z,16.01
2022-11-02T09:50:43.951Z,16.03
2022-11-02T09:51:43.943Z,16.07
2022-11-02T09:52:43.921Z,16.07
2022-11-02T09:53:43.922Z,16.11
2022-11-02T09:54:43.932Z,16.16
2022-11-02T09:55:43.903Z,16.23
2022-11-02T09:56:43.918Z,16.26
2022-11-02T09:57:43.873Z,16.32
2022-11-02T09:58:43.861Z,16.36
2022-11-02T09:59:43.866Z,16.37
2022-11-02T10:00:43.845Z,16.42
2022-11-02T10:01:43.952Z,16.44
2022-11-02T10:02:43.879Z,16.47
2022-11-02T10:03:43.824Z,16.44
2022-11-02T10:04:43.813Z,16.44
2022-11-02T10:05:43.795Z,16.42
2022-11-02T10:06:43.772Z,16.45
2022-11-02T10:07:43.764Z,16.47
2022-11-02T10:08:43.776Z,16.47
2022-11-02T10:09:43.775Z,16.45
2022-11-02T10:10:43.730Z,16.42
2022-11-02T10:11:43.728Z,16.44
2022-11-02T10:12:43.737Z,16.42
2022-11-02T10:13:43.711Z,16.41
2022-11-02T10:14:43.684Z,16.44
2022-11-02T10:15:43.706Z,16.48
2022-11-02T10:16:43.668Z,16.50
2022-11-02T10:17:43.667Z,16.48
2022-11-02T10:18:43.656Z,16.48
2022-11-02T10:19:43.665Z,16.47
2022-11-02T10:20:43.630Z,16.45
2022-11-02T10:21:43.629Z,16.47
2022-11-02T10:22:43.611Z,16.45
2022-11-02T10:23:43.597Z,16.42
2022-11-02T10:24:43.578Z,16.37
2022-11-02T10:25:43.599Z,16.37
2022-11-02T10:26:43.583Z,16.40
2022-11-02T10:27:43.582Z,16.41
2022-11-02T10:28:43.530Z,16.41
2022-11-02T10:29:43.560Z,16.42
2022-11-02T10:30:43.535Z,16.45
2022-11-02T10:31:43.561Z,16.45
2022-11-02T10:33:43.491Z,16.45
2022-11-02T10:34:43.481Z,16.50
2022-11-02T10:36:11.961Z,16.51
2022-11-02T10:36:44.441Z,16.54
2022-11-02T10:37:43.452Z,16.52
2022-11-02T10:38:43.433Z,16.57
2022-11-02T10:39:43.411Z,16.57
2022-11-02T10:40:43.442Z,16.55
2022-11-02T10:41:43.402Z,16.57
2022-11-02T10:42:43.383Z,16.60
2022-11-02T10:43:45.189Z,16.66
2022-11-02T10:44:43.368Z,16.66
2022-11-02T10:45:43.354Z,16.59
2022-11-02T10:46:43.363Z,16.59
2022-11-02T10:47:43.327Z,16.62
2022-11-02T10:48:43.314Z,16.65
2022-11-02T10:49:43.338Z,16.65
2022-11-02T10:50:43.304Z,16.67
2022-11-02T10:51:43.291Z,16.70
2022-11-02T10:52:43.275Z,16.77
2022-11-02T10:53:43.808Z,16.84
2022-11-02T10:54:43.345Z,16.87
2022-11-02T10:55:43.245Z,16.92
2022-11-02T10:56:43.225Z,17.00
2022-11-02T10:57:43.227Z,17.06
2022-11-02T10:58:43.208Z,17.12
2022-11-02T10:59:43.196Z,17.18
2022-11-02T11:00:43.255Z,17.21
2022-11-02T11:01:43.193Z,17.28
2022-11-02T11:02:43.187Z,17.36
2022-11-02T11:03:43.158Z,17.43
2022-11-02T11:04:43.148Z,17.49
2022-11-02T11:05:43.138Z,17.54
2022-11-02T11:06:43.143Z,17.57
2022-11-02T11:07:43.119Z,17.53
2022-11-02T11:08:43.108Z,17.51
2022-11-02T11:09:46.620Z,17.53
2022-11-02T11:10:43.087Z,17.53
2022-11-02T11:11:43.080Z,17.53
2022-11-02T11:12:43.079Z,17.47
2022-11-02T11:16:43.336Z,17.39
2022-11-02T11:19:44.011Z,17.30
2022-11-02T11:20:42.973Z,17.30
2022-11-02T11:21:42.962Z,17.33
2022-11-02T11:22:42.952Z,17.38
2022-11-02T11:23:42.943Z,17.38
2022-11-02T11:24:42.959Z,17.35
2022-11-02T11:25:42.924Z,17.35
2022-11-02T11:26:42.903Z,17.39
2022-11-02T11:27:42.919Z,17.54
2022-11-02T11:28:42.883Z,17.70
2022-11-02T11:29:42.875Z,17.89
2022-11-02T11:31:43.863Z,18.10
2022-11-02T11:32:42.835Z,18.23
2022-11-02T11:33:42.845Z,18.44
2022-11-02T11:34:42.825Z,18.71
2022-11-02T11:35:42.817Z,18.90
2022-11-02T11:36:42.797Z,19.23
2022-11-02T11:37:42.788Z,19.70
2022-11-02T11:38:42.794Z,20.25
2022-11-02T11:39:42.780Z,21.21
2022-11-02T11:40:42.747Z,22.14
2022-11-02T11:41:42.748Z,23.00
2022-11-02T11:42:42.728Z,23.74
2022-11-02T11:43:42.745Z,24.92
2022-11-02T11:44:42.708Z,26.01
2022-11-02T11:45:42.700Z,27.34
2022-11-02T11:46:42.711Z,28.33
2022-11-02T11:47:42.680Z,29.58
2022-11-02T11:48:42.662Z,30.64
2022-11-02T11:50:03.404Z,31.49
2022-11-02T11:50:43.961Z,32.09
2022-11-02T11:51:42.658Z,32.06
2022-11-02T11:52:42.638Z,32.62
2022-11-02T11:53:42.613Z,33.33
2022-11-02T11:54:42.622Z,33.56
2022-11-02T11:55:42.594Z,33.40
2022-11-02T11:56:42.582Z,33.90
2022-11-02T11:57:42.575Z,34.33
2022-11-02T11:58:44.268Z,33.90
2022-11-02T11:59:42.574Z,34.73
2022-11-02T12:00:42.555Z,34.34
2022-11-02T12:01:42.668Z,33.59
2022-11-02T12:02:44.704Z,32.29
2022-11-02T12:03:42.534Z,32.93
2022-11-02T12:04:42.497Z,31.72
2022-11-02T12:05:42.517Z,29.66
2022-11-02T12:06:42.477Z,28.15
2022-11-02T12:07:42.478Z,26.94
2022-11-02T12:08:42.450Z,25.85
2022-11-02T12:09:42.458Z,25.01
2022-11-02T12:10:42.429Z,24.30
2022-11-02T12:11:42.438Z,24.46
2022-11-02T12:12:42.410Z,23.90
2022-11-02T12:13:42.400Z,23.49
2022-11-02T12:14:42.380Z,23.18
2022-11-02T12:15:42.380Z,23.09
2022-11-02T12:16:42.420Z,23.19
2022-11-02T12:17:42.379Z,26.00
2022-11-02T12:18:42.347Z,25.81
2022-11-02T12:19:42.365Z,27.03
2022-11-02T12:20:42.333Z,29.39
2022-11-02T12:21:42.333Z,31.05
2022-11-02T12:22:42.308Z,32.36
2022-11-02T12:23:42.295Z,33.21
2022-11-02T12:24:42.274Z,33.93
2022-11-02T12:25:42.284Z,34.55
2022-11-02T12:26:42.275Z,35.09
2022-11-02T12:27:42.256Z,35.49
2022-11-02T12:28:42.246Z,35.71
2022-11-02T12:29:42.252Z,35.74
2022-11-02T12:30:42.218Z,35.74
2022-11-02T12:31:42.238Z,35.93
2022-11-02T12:32:42.200Z,36.34
2022-11-02T12:33:42.229Z,36.55
2022-11-02T12:34:42.195Z,36.60
2022-11-02T12:35:42.169Z,36.38
2022-11-02T12:37:03.451Z,36.52
2022-11-02T12:37:43.160Z,36.72
2022-11-02T12:38:42.231Z,36.94
2022-11-02T12:39:42.149Z,37.18
2022-11-02T12:40:42.122Z,37.21
2022-11-02T12:41:42.221Z,36.91
2022-11-02T12:42:43.295Z,36.91
2022-11-02T12:43:42.112Z,37.11
2022-11-02T12:44:42.083Z,36.96
2022-11-02T12:45:42.072Z,36.74
2022-11-02T12:46:46.091Z,36.97
2022-11-02T12:47:43.076Z,37.20
2022-11-02T12:48:42.037Z,37.49
2022-11-02T12:49:42.055Z,37.69
2022-11-02T12:50:42.039Z,37.68
2022-11-02T12:51:42.015Z,37.72
2022-11-02T12:52:41.996Z,37.58
2022-11-02T12:53:42.007Z,37.35
2022-11-02T12:54:41.978Z,37.13
2022-11-02T12:55:41.968Z,37.28
2022-11-02T12:56:41.979Z,37.27
2022-11-02T12:57:41.969Z,37.65
2022-11-02T12:58:41.940Z,37.85
2022-11-02T12:59:41.941Z,37.93
2022-11-02T13:00:41.959Z,37.72
2022-11-02T13:01:42.144Z,37.80
2022-11-02T13:02:41.903Z,37.54